createdAt,value
2022-10-05T03:39:10.882Z,5.15
2022-10-05T08:26:02.933Z,2.80
2022-10-05T08:28:34.398Z,2.27
2022-10-05T10:12:12.509Z,2.20
2022-10-05T10:15:03.211Z,1.80
2022-10-05T10:17:33.490Z,1.50
2022-10-05T11:07:18.608Z,0.90
2022-10-05T11:10:04.687Z,1.00
2022-10-05T11:12:51.703Z,1.10
2022-10-05T11:15:19.064Z,1.00
2022-10-05T11:18:01.563Z,0.73
2022-10-05T11:20:47.139Z,1.02
2022-10-05T11:23:14.894Z,0.90
2022-10-05T11:26:02.940Z,0.93
2022-10-05T11:28:30.378Z,1.02
2022-10-05T11:30:57.697Z,0.80
2022-10-05T11:33:25.039Z,0.80
2022-10-05T12:07:50.361Z,1.00
2022-10-05T12:10:36.429Z,1.15
2022-10-05T12:13:06.643Z,0.82
2022-10-05T12:15:40.930Z,1.33
2022-10-05T12:18:24.562Z,1.15
2022-10-05T12:21:02.911Z,0.80
2022-10-05T12:23:30.377Z,1.15
2022-10-05T12:26:04.270Z,0.68
2022-10-05T12:28:38.412Z,0.77
2022-10-05T12:31:13.795Z,0.68
2022-10-05T12:34:01.847Z,1.02
2022-10-05T12:37:02.598Z,0.82
2022-10-05T12:39:28.259Z,1.45
2022-10-05T12:42:15.092Z,1.30
2022-10-05T12:44:59.625Z,0.90
2022-10-05T12:47:33.180Z,0.70
2022-10-05T12:50:00.568Z,1.17
2022-10-05T12:52:43.395Z,1.45
2022-10-05T12:55:13.603Z,0.77
2022-10-05T12:57:41.004Z,1.00
2022-10-05T13:00:13.180Z,0.80
2022-10-05T13:02:46.586Z,0.98
2022-10-05T13:05:26.371Z,0.80
2022-10-05T13:08:02.119Z,0.98
2022-10-05T13:10:38.191Z,1.02
2022-10-05T13:13:25.768Z,1.00
2022-10-05T13:15:58.965Z,0.85
2022-10-05T13:21:03.986Z,0.90
2022-10-05T13:40:59.942Z,0.90
2022-10-05T13:43:41.389Z,0.77
2022-10-05T13:46:12.173Z,0.70
2022-10-05T13:48:58.597Z,0.75
2022-10-05T13:51:29.334Z,0.75
2022-10-05T13:54:19.691Z,0.65
2022-10-05T13:56:52.292Z,0.90
2022-10-05T13:59:41.157Z,0.77
2022-10-05T14:02:10.183Z,0.90
2022-10-05T14:04:43.640Z,1.25
2022-10-05T14:07:22.917Z,0.70
2022-10-05T14:09:50.564Z,0.50
2022-10-05T14:12:22.377Z,0.80
2022-10-05T14:14:54.035Z,0.98
2022-10-05T14:17:32.883Z,0.70
2022-10-05T14:20:01.264Z,1.00
2022-10-05T14:47:16.118Z,0.90
2022-10-05T14:59:39.493Z,1.27
